sensor_id;sensor_type;location;lat;lon;timestamp;pressure;altitude;pressure_sealevel;temperature;humidity
11329;BME280;5719;42.714;23.732;2023-04-26T00:00:30;93498.47;;;11.19;100.00
11329;BME280;5719;42.714;23.732;2023-04-26T00:02:58;93495.22;;;11.17;100.00
11329;BME280;5719;42.714;23.732;2023-04-26T00:05:25;93492.66;;;11.17;100.00
11329;BME280;5719;42.714;23.732;2023-04-26T00:07:54;93491.16;;;11.14;100.00
11329;BME280;5719;42.714;23.732;2023-04-26T00:10:21;93481.88;;;11.12;100.00
11329;BME280;5719;42.714;23.732;2023-04-26T00:12:47;93483.81;;;11.10;100.00
11329;BME280;5719;42.714;23.732;2023-04-26T00:15:14;93479.44;;;11.10;100.00
11329;BME280;5719;42.714;23.732;2023-04-26T00:17:41;93477.69;;;11.11;100.00
11329;BME280;5719;42.714;23.732;2023-04-26T00:20:09;93477.94;;;11.08;100.00
11329;BME280;5719;42.714;23.732;2023-04-26T00:22:37;93469.50;;;11.06;100.00
11329;BME280;5719;42.714;23.732;2023-04-26T00:25:07;93459.03;;;10.98;100.00
11329;BME280;5719;42.714;23.732;2023-04-26T00:27:34;93465.28;;;10.86;100.00
11329;BME280;5719;42.714;23.732;2023-04-26T00:30:01;93454.16;;;10.66;100.00
11329;BME280;5719;42.714;23.732;2023-04-26T00:32:29;93452.63;;;10.54;100.00
11329;BME280;5719;42.714;23.732;2023-04-26T00:34:56;93451.81;;;10.53;100.00
11329;BME280;5719;42.714;23.732;2023-04-26T00:37:24;93443.41;;;10.51;100.00
11329;BME280;5719;42.714;23.732;2023-04-26T00:39:50;93436.97;;;10.46;100.00
11329;BME280;5719;42.714;23.732;2023-04-26T00:42:19;93447.06;;;10.49;100.00
11329;BME280;5719;42.714;23.732;2023-04-26T00:44:45;93444.63;;;10.47;100.00
11329;BME280;5719;42.714;23.732;2023-04-26T00:47:14;93442.16;;;10.46;100.00
11329;BME280;5719;42.714;23.732;2023-04-26T00:49:41;93442.41;;;10.43;100.00
11329;BME280;5719;42.714;23.732;2023-04-26T00:52:08;93446.78;;;10.42;100.00
11329;BME280;5719;42.714;23.732;2023-04-26T00:54:35;93443.63;;;10.39;100.00
11329;BME280;5719;42.714;23.732;2023-04-26T00:57:02;93440.25;;;10.38;100.00
11329;BME280;5719;42.714;23.732;2023-04-26T00:59:32;93437.13;;;10.35;100.00
11329;BME280;5719;42.714;23.732;2023-04-26T01:02:01;93438.91;;;10.34;100.00
11329;BME280;5719;42.714;23.732;2023-04-26T01:04:28;93446.78;;;10.32;100.00
11329;BME280;5719;42.714;23.732;2023-04-26T01:06:55;93439.97;;;10.31;100.00
11329;BME280;5719;42.714;23.732;2023-04-26T01:09:22;93441.06;;;10.29;100.00
11329;BME280;5719;42.714;23.732;2023-04-26T01:11:50;93442.97;;;10.27;100.00
11329;BME280;5719;42.714;23.732;2023-04-26T01:14:17;93441.31;;;10.26;100.00
11329;BME280;5719;42.714;23.732;2023-04-26T01:16:46;93447.44;;;10.25;100.00
11329;BME280;5719;42.714;23.732;2023-04-26T01:19:13;93449.47;;;10.21;100.00
11329;BME280;5719;42.714;23.732;2023-04-26T01:21:41;93442.81;;;10.19;100.00
11329;BME280;5719;42.714;23.732;2023-04-26T01:24:11;93445.66;;;10.16;100.00
11329;BME280;5719;42.714;23.732;2023-04-26T01:26:38;93447.50;;;10.14;100.00
11329;BME280;5719;42.714;23.732;2023-04-26T01:29:14;93443.72;;;10.08;100.00
11329;BME280;5719;42.714;23.732;2023-04-26T01:31:41;93450.63;;;10.08;100.00
11329;BME280;5719;42.714;23.732;2023-04-26T01:34:08;93457.94;;;10.03;100.00
11329;BME280;5719;42.714;23.732;2023-04-26T01:36:35;93450.75;;;9.97;99.02
11329;BME280;5719;42.714;23.732;2023-04-26T01:39:02;93449.38;;;9.93;100.00
11329;BME280;5719;42.714;23.732;2023-04-26T01:41:30;93450.84;;;9.85;100.00
11329;BME280;5719;42.714;23.732;2023-04-26T01:43:58;93442.66;;;9.80;100.00
11329;BME280;5719;42.714;23.732;2023-04-26T01:46:25;93438.59;;;9.78;100.00
11329;BME280;5719;42.714;23.732;2023-04-26T01:48:52;93448.78;;;9.79;100.00
11329;BME280;5719;42.714;23.732;2023-04-26T01:51:19;93439.41;;;9.78;100.00
11329;BME280;5719;42.714;23.732;2023-04-26T01:53:46;93442.94;;;9.77;100.00
11329;BME280;5719;42.714;23.732;2023-04-26T01:56:13;93441.44;;;9.75;100.00
11329;BME280;5719;42.714;23.732;2023-04-26T01:58:41;93443.47;;;9.71;100.00
11329;BME280;5719;42.714;23.732;2023-04-26T02:01:08;93455.25;;;9.64;100.00
11329;BME280;5719;42.714;23.732;2023-04-26T02:03:35;93460.69;;;9.61;100.00
11329;BME280;5719;42.714;23.732;2023-04-26T02:06:04;93465.41;;;9.56;100.00
11329;BME280;5719;42.714;23.732;2023-04-26T02:08:31;93457.47;;;9.48;100.00
11329;BME280;5719;42.714;23.732;2023-04-26T02:10:58;93456.28;;;9.52;100.00
11329;BME280;5719;42.714;23.732;2023-04-26T02:13:25;93460.34;;;9.55;100.00
11329;BME280;5719;42.714;23.732;2023-04-26T02:15:53;93461.06;;;9.57;100.00
11329;BME280;5719;42.714;23.732;2023-04-26T02:18:20;93454.13;;;9.57;100.00
11329;BME280;5719;42.714;23.732;2023-04-26T02:20:48;93451.41;;;9.59;100.00
11329;BME280;5719;42.714;23.732;2023-04-26T02:23:15;93443.56;;;9.60;100.00
11329;BME280;5719;42.714;23.732;2023-04-26T02:25:44;93432.97;;;9.63;100.00
11329;BME280;5719;42.714;23.732;2023-04-26T02:28:11;93430.13;;;9.66;100.00
11329;BME280;5719;42.714;23.732;2023-04-26T02:30:38;93434.34;;;9.67;100.00
11329;BME280;5719;42.714;23.732;2023-04-26T02:33:06;93422.75;;;9.62;100.00
11329;BME280;5719;42.714;23.732;2023-04-26T02:35:34;93426.56;;;9.58;100.00
11329;BME280;5719;42.714;23.732;2023-04-26T02:38:02;93420.69;;;9.46;100.00
11329;BME280;5719;42.714;23.732;2023-04-26T02:40:29;93424.72;;;9.39;100.00
11329;BME280;5719;42.714;23.732;2023-04-26T02:42:55;93439.72;;;9.24;100.00
11329;BME280;5719;42.714;23.732;2023-04-26T02:45:22;93432.63;;;9.17;100.00
11329;BME280;5719;42.714;23.732;2023-04-26T02:47:49;93423.25;;;9.16;100.00
11329;BME280;5719;42.714;23.732;2023-04-26T02:50:17;93437.19;;;8.93;100.00
11329;BME280;5719;42.714;23.732;2023-04-26T02:52:44;93437.34;;;8.91;100.00
11329;BME280;5719;42.714;23.732;2023-04-26T02:55:11;93440.53;;;8.83;100.00
11329;BME280;5719;42.714;23.732;2023-04-26T02:57:38;93461.38;;;8.92;100.00
11329;BME280;5719;42.714;23.732;2023-04-26T03:00:06;93450.53;;;8.98;100.00
11329;BME280;5719;42.714;23.732;2023-04-26T03:02:33;93448.72;;;9.09;100.00
11329;BME280;5719;42.714;23.732;2023-04-26T03:05:00;93455.81;;;9.17;100.00
11329;BME280;5719;42.714;23.732;2023-04-26T03:07:29;93443.13;;;9.25;100.00
11329;BME280;5719;42.714;23.732;2023-04-26T03:09:56;93439.31;;;9.29;100.00
11329;BME280;5719;42.714;23.732;2023-04-26T03:12:22;93438.13;;;9.33;100.00
11329;BME280;5719;42.714;23.732;2023-04-26T03:14:49;93430.16;;;9.36;100.00
11329;BME280;5719;42.714;23.732;2023-04-26T03:17:16;93419.84;;;9.36;100.00
11329;BME280;5719;42.714;23.732;2023-04-26T03:19:43;93424.09;;;9.26;100.00
11329;BME280;5719;42.714;23.732;2023-04-26T03:22:10;93411.66;;;9.31;100.00
11329;BME280;5719;42.714;23.732;2023-04-26T03:24:42;93411.84;;;9.39;100.00
11329;BME280;5719;42.714;23.732;2023-04-26T03:27:08;93406.16;;;9.45;100.00
11329;BME280;5719;42.714;23.732;2023-04-26T03:29:35;93407.53;;;9.49;100.00
11329;BME280;5719;42.714;23.732;2023-04-26T03:32:02;93415.00;;;9.52;100.00
11329;BME280;5719;42.714;23.732;2023-04-26T03:34:29;93413.34;;;9.51;100.00
11329;BME280;5719;42.714;23.732;2023-04-26T03:36:56;93417.31;;;9.55;100.00
11329;BME280;5719;42.714;23.732;2023-04-26T03:39:23;93410.13;;;9.59;100.00
11329;BME280;5719;42.714;23.732;2023-04-26T03:41:51;93404.84;;;9.60;100.00
11329;BME280;5719;42.714;23.732;2023-04-26T03:44:18;93414.72;;;9.55;100.00
11329;BME280;5719;42.714;23.732;2023-04-26T03:46:45;93416.19;;;9.48;100.00
11329;BME280;5719;42.714;23.732;2023-04-26T03:49:12;93409.72;;;9.54;100.00
11329;BME280;5719;42.714;23.732;2023-04-26T03:51:39;93402.28;;;9.60;100.00
11329;BME280;5719;42.714;23.732;2023-04-26T03:54:06;93405.25;;;9.65;100.00
11329;BME280;5719;42.714;23.732;2023-04-26T03:56:32;93411.94;;;9.68;100.00
11329;BME280;5719;42.714;23.732;2023-04-26T03:59:02;93422.81;;;9.71;100.00
11329;BME280;5719;42.714;23.732;2023-04-26T04:01:29;93421.88;;;9.72;100.00
11329;BME280;5719;42.714;23.732;2023-04-26T04:03:56;93421.72;;;9.74;100.00
11329;BME280;5719;42.714;23.732;2023-04-26T04:06:23;93413.41;;;9.61;100.00
11329;BME280;5719;42.714;23.732;2023-04-26T04:08:51;93417.91;;;9.68;100.00
11329;BME280;5719;42.714;23.732;2023-04-26T04:11:18;93419.16;;;9.74;100.00
11329;BME280;5719;42.714;23.732;2023-04-26T04:13:44;93425.31;;;9.82;100.00
11329;BME280;5719;42.714;23.732;2023-04-26T04:16:13;93424.75;;;9.89;100.00
11329;BME280;5719;42.714;23.732;2023-04-26T04:18:39;93433.72;;;9.84;100.00
11329;BME280;5719;42.714;23.732;2023-04-26T04:21:06;93438.09;;;9.94;100.00
11329;BME280;5719;42.714;23.732;2023-04-26T04:23:33;93439.88;;;9.93;100.00
11329;BME280;5719;42.714;23.732;2023-04-26T04:26:00;93440.06;;;9.71;100.00
11329;BME280;5719;42.714;23.732;2023-04-26T04:28:27;93439.78;;;9.74;100.00
11329;BME280;5719;42.714;23.732;2023-04-26T04:30:54;93442.53;;;9.82;100.00
11329;BME280;5719;42.714;23.732;2023-04-26T04:33:23;93448.94;;;9.88;100.00
11329;BME280;5719;42.714;23.732;2023-04-26T04:35:53;93452.69;;;9.74;100.00
11329;BME280;5719;42.714;23.732;2023-04-26T04:38:20;93457.41;;;9.59;100.00
11329;BME280;5719;42.714;23.732;2023-04-26T04:40:47;93465.28;;;9.37;100.00
11329;BME280;5719;42.714;23.732;2023-04-26T04:43:15;93468.13;;;9.34;100.00
11329;BME280;5719;42.714;23.732;2023-04-26T04:45:42;93465.94;;;9.29;100.00
11329;BME280;5719;42.714;23.732;2023-04-26T04:48:09;93463.41;;;9.18;100.00
11329;BME280;5719;42.714;23.732;2023-04-26T04:50:37;93465.13;;;9.08;100.00
11329;BME280;5719;42.714;23.732;2023-04-26T04:53:04;93466.22;;;9.06;100.00
11329;BME280;5719;42.714;23.732;2023-04-26T04:55:31;93466.78;;;9.09;100.00
11329;BME280;5719;42.714;23.732;2023-04-26T04:57:58;93460.41;;;8.72;100.00
11329;BME280;5719;42.714;23.732;2023-04-26T05:00:26;93468.06;;;8.83;100.00
11329;BME280;5719;42.714;23.732;2023-04-26T05:02:53;93460.66;;;8.90;100.00
11329;BME280;5719;42.714;23.732;2023-04-26T05:05:20;93463.22;;;8.90;100.00
11329;BME280;5719;42.714;23.732;2023-04-26T05:07:49;93462.34;;;8.79;100.00
11329;BME280;5719;42.714;23.732;2023-04-26T05:10:16;93472.81;;;8.99;100.00
11329;BME280;5719;42.714;23.732;2023-04-26T05:12:43;93460.47;;;9.23;100.00
11329;BME280;5719;42.714;23.732;2023-04-26T05:15:11;93459.22;;;9.17;100.00
11329;BME280;5719;42.714;23.732;2023-04-26T05:17:37;93460.53;;;9.63;100.00
11329;BME280;5719;42.714;23.732;2023-04-26T05:20:05;93475.03;;;9.33;100.00
11329;BME280;5719;42.714;23.732;2023-04-26T05:22:32;93472.72;;;9.30;100.00
11329;BME280;5719;42.714;23.732;2023-04-26T05:25:02;93471.78;;;9.31;100.00
11329;BME280;5719;42.714;23.732;2023-04-26T05:27:30;93460.44;;;9.44;100.00
11329;BME280;5719;42.714;23.732;2023-04-26T05:29:56;93480.00;;;9.76;100.00
11329;BME280;5719;42.714;23.732;2023-04-26T05:32:23;93486.78;;;9.47;100.00
11329;BME280;5719;42.714;23.732;2023-04-26T05:34:50;93483.66;;;9.44;100.00
11329;BME280;5719;42.714;23.732;2023-04-26T05:37:17;93481.72;;;9.66;100.00
11329;BME280;5719;42.714;23.732;2023-04-26T05:39:44;93483.06;;;9.61;100.00
11329;BME280;5719;42.714;23.732;2023-04-26T05:42:12;93488.63;;;9.87;100.00
11329;BME280;5719;42.714;23.732;2023-04-26T05:44:39;93486.31;;;9.83;100.00
11329;BME280;5719;42.714;23.732;2023-04-26T05:47:07;93487.63;;;10.08;100.00
11329;BME280;5719;42.714;23.732;2023-04-26T05:49:33;93497.50;;;10.33;100.00
11329;BME280;5719;42.714;23.732;2023-04-26T05:52:01;93495.63;;;10.64;100.00
11329;BME280;5719;42.714;23.732;2023-04-26T05:54:28;93488.44;;;10.77;100.00
11329;BME280;5719;42.714;23.732;2023-04-26T05:56:55;93486.66;;;11.07;100.00
11329;BME280;5719;42.714;23.732;2023-04-26T05:59:23;93500.66;;;11.23;100.00
11329;BME280;5719;42.714;23.732;2023-04-26T06:01:50;93486.84;;;11.52;100.00
11329;BME280;5719;42.714;23.732;2023-04-26T06:04:17;93483.41;;;11.80;100.00
11329;BME280;5719;42.714;23.732;2023-04-26T06:06:44;93484.66;;;12.13;100.00
11329;BME280;5719;42.714;23.732;2023-04-26T06:09:10;93478.59;;;12.49;98.56
11329;BME280;5719;42.714;23.732;2023-04-26T06:11:38;93479.25;;;12.87;95.44
11329;BME280;5719;42.714;23.732;2023-04-26T06:14:05;93480.31;;;13.29;93.79
11329;BME280;5719;42.714;23.732;2023-04-26T06:16:33;93479.22;;;13.57;91.17
11329;BME280;5719;42.714;23.732;2023-04-26T06:19:00;93476.56;;;13.75;89.56
11329;BME280;5719;42.714;23.732;2023-04-26T06:21:27;93481.28;;;14.05;89.12
11329;BME280;5719;42.714;23.732;2023-04-26T06:23:54;93479.50;;;14.48;84.46
11329;BME280;5719;42.714;23.732;2023-04-26T06:26:21;93474.56;;;14.95;81.83
11329;BME280;5719;42.714;23.732;2023-04-26T06:28:47;93476.53;;;15.41;78.55
11329;BME280;5719;42.714;23.732;2023-04-26T06:31:14;93479.47;;;15.46;76.19
11329;BME280;5719;42.714;23.732;2023-04-26T06:33:43;93469.09;;;15.62;74.96
11329;BME280;5719;42.714;23.732;2023-04-26T06:36:10;93475.38;;;15.92;74.82
11329;BME280;5719;42.714;23.732;2023-04-26T06:38:38;93472.88;;;16.15;73.26
11329;BME280;5719;42.714;23.732;2023-04-26T06:41:05;93462.88;;;16.35;71.80
11329;BME280;5719;42.714;23.732;2023-04-26T06:43:32;93470.84;;;16.33;72.23
11329;BME280;5719;42.714;23.732;2023-04-26T06:46:00;93462.72;;;16.28;72.93
11329;BME280;5719;42.714;23.732;2023-04-26T06:48:27;93460.53;;;15.93;73.51
11329;BME280;5719;42.714;23.732;2023-04-26T06:50:55;93466.16;;;15.57;75.59
11329;BME280;5719;42.714;23.732;2023-04-26T06:53:22;93472.81;;;15.28;77.09
11329;BME280;5719;42.714;23.732;2023-04-26T06:55:49;93471.50;;;15.23;76.81
11329;BME280;5719;42.714;23.732;2023-04-26T06:58:17;93467.94;;;15.00;78.64
11329;BME280;5719;42.714;23.732;2023-04-26T07:00:44;93457.75;;;14.15;80.79
11329;BME280;5719;42.714;23.732;2023-04-26T07:03:11;93470.03;;;13.45;84.70
11329;BME280;5719;42.714;23.732;2023-04-26T07:05:38;93459.09;;;13.16;85.68
11329;BME280;5719;42.714;23.732;2023-04-26T07:08:06;93464.59;;;13.56;81.96
11329;BME280;5719;42.714;23.732;2023-04-26T07:10:33;93455.31;;;12.75;87.00
11329;BME280;5719;42.714;23.732;2023-04-26T07:13:00;93473.59;;;12.38;90.42
11329;BME280;5719;42.714;23.732;2023-04-26T07:15:27;93475.22;;;12.39;96.88
11329;BME280;5719;42.714;23.732;2023-04-26T07:17:54;93472.59;;;12.84;90.67
11329;BME280;5719;42.714;23.732;2023-04-26T07:20:21;93476.63;;;13.14;91.10
11329;BME280;5719;42.714;23.732;2023-04-26T07:22:48;93472.59;;;13.02;91.58
11329;BME280;5719;42.714;23.732;2023-04-26T07:25:17;93472.66;;;13.27;86.89
11329;BME280;5719;42.714;23.732;2023-04-26T07:27:44;93477.25;;;12.98;86.07
11329;BME280;5719;42.714;23.732;2023-04-26T07:30:12;93471.91;;;13.35;90.08
11329;BME280;5719;42.714;23.732;2023-04-26T07:32:39;93470.75;;;13.55;83.33
11329;BME280;5719;42.714;23.732;2023-04-26T07:35:06;93470.03;;;13.45;85.40
11329;BME280;5719;42.714;23.732;2023-04-26T07:37:35;93475.97;;;13.38;83.87
11329;BME280;5719;42.714;23.732;2023-04-26T07:40:01;93469.44;;;13.51;84.36
11329;BME280;5719;42.714;23.732;2023-04-26T07:42:34;93480.78;;;13.76;81.79
11329;BME280;5719;42.714;23.732;2023-04-26T07:45:01;93482.00;;;13.03;84.56
11329;BME280;5719;42.714;23.732;2023-04-26T07:47:28;93472.66;;;13.27;84.81
11329;BME280;5719;42.714;23.732;2023-04-26T07:49:55;93477.03;;;12.92;87.25
11329;BME280;5719;42.714;23.732;2023-04-26T07:52:21;93475.09;;;12.94;86.66
11329;BME280;5719;42.714;23.732;2023-04-26T07:54:49;93468.13;;;13.47;83.86
11329;BME280;5719;42.714;23.732;2023-04-26T07:57:16;93465.34;;;13.49;84.83
11329;BME280;5719;42.714;23.732;2023-04-26T07:59:45;93473.69;;;13.35;85.50
11329;BME280;5719;42.714;23.732;2023-04-26T08:02:12;93474.88;;;13.40;78.54
11329;BME280;5719;42.714;23.732;2023-04-26T08:04:45;93474.41;;;13.70;79.42
11329;BME280;5719;42.714;23.732;2023-04-26T08:07:12;93469.00;;;14.65;77.46
11329;BME280;5719;42.714;23.732;2023-04-26T08:09:39;93474.38;;;14.80;77.37
11329;BME280;5719;42.714;23.732;2023-04-26T08:12:07;93474.66;;;14.61;76.33
11329;BME280;5719;42.714;23.732;2023-04-26T08:14:34;93467.44;;;14.97;72.31
11329;BME280;5719;42.714;23.732;2023-04-26T08:17:02;93468.38;;;14.80;72.70
11329;BME280;5719;42.714;23.732;2023-04-26T08:19:30;93466.81;;;15.11;73.54
11329;BME280;5719;42.714;23.732;2023-04-26T08:21:58;93461.97;;;14.58;75.79
11329;BME280;5719;42.714;23.732;2023-04-26T08:24:24;93456.47;;;14.61;76.48
11329;BME280;5719;42.714;23.732;2023-04-26T08:26:51;93462.00;;;14.16;76.44
11329;BME280;5719;42.714;23.732;2023-04-26T08:29:18;93465.03;;;13.77;78.54
11329;BME280;5719;42.714;23.732;2023-04-26T08:31:45;93463.78;;;13.56;83.42
11329;BME280;5719;42.714;23.732;2023-04-26T08:34:14;93455.75;;;13.23;82.28
11329;BME280;5719;42.714;23.732;2023-04-26T08:36:41;93468.38;;;13.18;85.21
11329;BME280;5719;42.714;23.732;2023-04-26T08:39:08;93463.78;;;12.77;85.77
11329;BME280;5719;42.714;23.732;2023-04-26T08:41:42;93474.97;;;12.60;85.85
11329;BME280;5719;42.714;23.732;2023-04-26T08:44:10;93473.72;;;12.99;84.84
11329;BME280;5719;42.714;23.732;2023-04-26T08:46:42;93466.56;;;13.01;84.51
11329;BME280;5719;42.714;23.732;2023-04-26T08:49:19;93476.66;;;12.87;85.59
11329;BME280;5719;42.714;23.732;2023-04-26T08:51:51;93477.56;;;12.95;85.89
11329;BME280;5719;42.714;23.732;2023-04-26T08:54:19;93480.16;;;12.95;85.96
11329;BME280;5719;42.714;23.732;2023-04-26T08:56:47;93475.41;;;13.26;82.14
11329;BME280;5719;42.714;23.732;2023-04-26T08:59:15;93481.41;;;12.91;82.30
11329;BME280;5719;42.714;23.732;2023-04-26T09:01:42;93470.50;;;13.23;82.71
11329;BME280;5719;42.714;23.732;2023-04-26T09:04:09;93478.00;;;13.26;79.44
11329;BME280;5719;42.714;23.732;2023-04-26T09:06:39;93485.22;;;12.97;80.50
11329;BME280;5719;42.714;23.732;2023-04-26T09:09:07;93481.28;;;12.93;80.66
11329;BME280;5719;42.714;23.732;2023-04-26T09:11:53;93483.09;;;12.65;82.53
11329;BME280;5719;42.714;23.732;2023-04-26T09:14:20;93482.81;;;13.03;80.11
11329;BME280;5719;42.714;23.732;2023-04-26T09:16:47;93488.03;;;13.21;78.37
11329;BME280;5719;42.714;23.732;2023-04-26T09:19:14;93483.19;;;13.26;80.30
11329;BME280;5719;42.714;23.732;2023-04-26T09:21:44;93482.53;;;13.24;78.97
11329;BME280;5719;42.714;23.732;2023-04-26T09:24:11;93480.16;;;13.13;78.70
11329;BME280;5719;42.714;23.732;2023-04-26T09:26:39;93486.94;;;13.49;78.00
11329;BME280;5719;42.714;23.732;2023-04-26T09:29:11;93485.06;;;13.16;77.80
11329;BME280;5719;42.714;23.732;2023-04-26T09:31:40;93498.34;;;13.13;79.10
11329;BME280;5719;42.714;23.732;2023-04-26T09:34:08;93498.97;;;12.97;78.49
11329;BME280;5719;42.714;23.732;2023-04-26T09:36:48;93499.75;;;13.25;79.87
11329;BME280;5719;42.714;23.732;2023-04-26T09:39:28;93500.38;;;13.45;77.85
11329;BME280;5719;42.714;23.732;2023-04-26T09:41:57;93498.28;;;13.48;79.26
11329;BME280;5719;42.714;23.732;2023-04-26T09:44:24;93498.66;;;13.79;82.42
11329;BME280;5719;42.714;23.732;2023-04-26T09:47:02;93494.91;;;13.12;82.30
11329;BME280;5719;42.714;23.732;2023-04-26T09:49:31;93504.09;;;13.07;81.30
11329;BME280;5719;42.714;23.732;2023-04-26T09:52:03;93499.56;;;13.26;85.57
11329;BME280;5719;42.714;23.732;2023-04-26T09:54:38;93493.84;;;13.58;85.57
11329;BME280;5719;42.714;23.732;2023-04-26T09:57:05;93495.63;;;13.84;85.18
11329;BME280;5719;42.714;23.732;2023-04-26T09:59:46;93501.06;;;13.72;91.44
11329;BME280;5719;42.714;23.732;2023-04-26T10:02:15;93500.38;;;13.45;83.59
11329;BME280;5719;42.714;23.732;2023-04-26T10:04:47;93496.47;;;13.66;83.56
11329;BME280;5719;42.714;23.732;2023-04-26T10:07:16;93490.41;;;13.84;82.88
11329;BME280;5719;42.714;23.732;2023-04-26T10:09:44;93492.13;;;14.01;84.71
11329;BME280;5719;42.714;23.732;2023-04-26T10:12:13;93491.47;;;13.99;82.94
11329;BME280;5719;42.714;23.732;2023-04-26T10:14:41;93488.94;;;14.15;84.46
11329;BME280;5719;42.714;23.732;2023-04-26T10:17:09;93486.72;;;14.28;85.99
11329;BME280;5719;42.714;23.732;2023-04-26T10:19:36;93486.47;;;14.39;88.55
11329;BME280;5719;42.714;23.732;2023-04-26T10:22:06;93484.56;;;14.49;89.33
11329;BME280;5719;42.714;23.732;2023-04-26T10:24:35;93484.56;;;14.57;88.96
11329;BME280;5719;42.714;23.732;2023-04-26T10:27:02;93486.88;;;14.68;88.53
11329;BME280;5719;42.714;23.732;2023-04-26T10:32:31;93478.88;;;14.54;87.55
11329;BME280;5719;42.714;23.732;2023-04-26T10:35:09;93477.94;;;14.63;82.18
11329;BME280;5719;42.714;23.732;2023-04-26T10:37:36;93468.47;;;14.12;83.93
11329;BME280;5719;42.714;23.732;2023-04-26T10:40:27;93465.88;;;14.12;87.52
11329;BME280;5719;42.714;23.732;2023-04-26T10:43:27;93466.78;;;14.03;89.25
11329;BME280;5719;42.714;23.732;2023-04-26T10:45:54;93468.59;;;14.02;87.17
11329;BME280;5719;42.714;23.732;2023-04-26T10:48:27;93460.59;;;13.96;85.90
11329;BME280;5719;42.714;23.732;2023-04-26T10:51:07;93468.38;;;13.96;87.10
11329;BME280;5719;42.714;23.732;2023-04-26T10:53:58;93465.03;;;13.77;81.86
11329;BME280;5719;42.714;23.732;2023-04-26T10:56:52;93464.53;;;14.08;80.77
11329;BME280;5719;42.714;23.732;2023-04-26T10:59:20;93459.03;;;14.11;80.52
11329;BME280;5719;42.714;23.732;2023-04-26T11:01:47;93463.50;;;14.27;72.57
11329;BME280;5719;42.714;23.732;2023-04-26T11:04:14;93464.88;;;14.39;73.57
11329;BME280;5719;42.714;23.732;2023-04-26T11:06:49;93467.34;;;14.56;68.92
11329;BME280;5719;42.714;23.732;2023-04-26T11:09:32;93465.34;;;14.34;74.01
11329;BME280;5719;42.714;23.732;2023-04-26T11:12:03;93466.81;;;14.11;74.89
11329;BME280;5719;42.714;23.732;2023-04-26T11:14:30;93461.72;;;13.93;68.49
11329;BME280;5719;42.714;23.732;2023-04-26T11:16:56;93446.22;;;13.50;68.48
11329;BME280;5719;42.714;23.732;2023-04-26T11:19:25;93456.66;;;13.58;66.75
11329;BME280;5719;42.714;23.732;2023-04-26T11:21:52;93454.38;;;13.81;66.57
11329;BME280;5719;42.714;23.732;2023-04-26T11:24:24;93465.28;;;13.66;66.41
11329;BME280;5719;42.714;23.732;2023-04-26T11:26:51;93473.66;;;13.52;68.28
11329;BME280;5719;42.714;23.732;2023-04-26T11:29:20;93460.06;;;13.58;65.57
11329;BME280;5719;42.714;23.732;2023-04-26T11:31:51;93471.56;;;13.82;65.96
11329;BME280;5719;42.714;23.732;2023-04-26T11:34:20;93480.41;;;13.97;65.82
11329;BME280;5719;42.714;23.732;2023-04-26T11:36:50;93466.53;;;13.80;63.50
11329;BME280;5719;42.714;23.732;2023-04-26T11:39:19;93463.09;;;14.13;66.36
11329;BME280;5719;42.714;23.732;2023-04-26T11:41:47;93461.03;;;14.67;63.59
11329;BME280;5719;42.714;23.732;2023-04-26T11:44:17;93459.13;;;15.09;61.87
11329;BME280;5719;42.714;23.732;2023-04-26T11:46:46;93462.72;;;15.65;59.58
11329;BME280;5719;42.714;23.732;2023-04-26T11:49:14;93463.41;;;16.14;60.06
11329;BME280;5719;42.714;23.732;2023-04-26T11:51:45;93466.13;;;16.29;54.03
11329;BME280;5719;42.714;23.732;2023-04-26T11:54:26;93465.03;;;16.23;58.36
11329;BME280;5719;42.714;23.732;2023-04-26T11:56:53;93463.56;;;16.21;55.73
11329;BME280;5719;42.714;23.732;2023-04-26T11:59:24;93468.19;;;16.49;57.11
11329;BME280;5719;42.714;23.732;2023-04-26T12:01:53;93472.66;;;16.72;54.14
11329;BME280;5719;42.714;23.732;2023-04-26T12:04:26;93466.06;;;16.84;51.58
11329;BME280;5719;42.714;23.732;2023-04-26T12:06:54;93455.75;;;16.21;54.42
11329;BME280;5719;42.714;23.732;2023-04-26T12:09:22;93462.38;;;15.19;55.60
11329;BME280;5719;42.714;23.732;2023-04-26T12:11:52;93463.88;;;15.62;56.26
11329;BME280;5719;42.714;23.732;2023-04-26T12:14:22;93456.81;;;15.87;55.53
11329;BME280;5719;42.714;23.732;2023-04-26T12:16:51;93454.41;;;14.81;57.20
11329;BME280;5719;42.714;23.732;2023-04-26T12:19:22;93458.13;;;14.70;56.49
11329;BME280;5719;42.714;23.732;2023-04-26T12:21:49;93464.19;;;15.27;54.12
11329;BME280;5719;42.714;23.732;2023-04-26T12:24:25;93461.75;;;15.66;54.17
11329;BME280;5719;42.714;23.732;2023-04-26T12:26:54;93453.16;;;16.12;53.24
11329;BME280;5719;42.714;23.732;2023-04-26T12:29:21;93459.22;;;16.05;53.15
11329;BME280;5719;42.714;23.732;2023-04-26T12:31:48;93460.06;;;15.97;49.62
11329;BME280;5719;42.714;23.732;2023-04-26T12:34:16;93453.44;;;16.26;49.27
11329;BME280;5719;42.714;23.732;2023-04-26T12:36:43;93453.84;;;16.45;47.50
11329;BME280;5719;42.714;23.732;2023-04-26T12:39:11;93451.34;;;16.60;47.58
11329;BME280;5719;42.714;23.732;2023-04-26T12:41:40;93462.97;;;16.80;46.85
11329;BME280;5719;42.714;23.732;2023-04-26T12:44:07;93466.34;;;16.89;47.24
11329;BME280;5719;42.714;23.732;2023-04-26T12:46:34;93463.94;;;17.10;46.51
11329;BME280;5719;42.714;23.732;2023-04-26T12:49:01;93455.84;;;16.35;47.28
11329;BME280;5719;42.714;23.732;2023-04-26T12:51:30;93453.97;;;16.13;50.33
11329;BME280;5719;42.714;23.732;2023-04-26T12:53:58;93459.19;;;16.52;49.56
11329;BME280;5719;42.714;23.732;2023-04-26T12:56:25;93467.63;;;16.23;49.14
11329;BME280;5719;42.714;23.732;2023-04-26T12:58:52;93456.00;;;15.87;49.34
11329;BME280;5719;42.714;23.732;2023-04-26T13:01:19;93459.56;;;15.94;49.15
11329;BME280;5719;42.714;23.732;2023-04-26T13:03:46;93459.66;;;16.16;47.91
11329;BME280;5719;42.714;23.732;2023-04-26T13:06:13;93458.47;;;16.35;47.82